Flight Track Log - Related Links

Times and Time Zones

All times are in EDT time to prevent confusion due to time zone crossing. See the LIA553 flight status page for this flight to view local times or setup timezone preferences in your user account.

Time Position Orientation Groundspeed Altitude Reporting Facility
EDT Latitude Longitude Course Direction KTS MPH feet Rate Location/Type
Fri 04:56:45 PM 18.3000 -64.9333 90° East 160 184 4,200  Level San Juan Center
Fri 04:57:45 PM 18.3000 -64.8833 90° East 160 184 5,400 1,240 Climbing San Juan Center
Fri 04:58:46 PM 18.3167 -64.8333 71° East 170 196 6,700 1,240 Climbing San Juan Center
Fri 04:59:46 PM 18.3167 -64.7833 90° East 170 196 7,900 1,150 Climbing San Juan Center
Fri 05:00:46 PM 18.3333 -64.7333 71° East 180 207 9,000 545 Climbing San Juan Center
Fri 05:01:47 PM 18.3500 -64.6667 75° East 230 265 9,000  Level San Juan Center
Fri 05:02:47 PM 18.3667 -64.6000 75° East 260 299 9,000  Level San Juan Center
Fri 05:03:47 PM 18.3667 -64.5167 90° East 270 311 9,000  Level San Juan Center
Fri 05:04:48 PM 18.3833 -64.4333 78° East 270 311 9,000  Level San Juan Center
Fri 05:05:48 PM 18.3833 -64.3667 90° East 280 322 9,000  Level San Juan Center
Fri 05:06:48 PM 18.3833 -64.2833 90° East 280 322 9,000  Level San Juan Center
Fri 05:07:48 PM 18.3833 -64.2000 90° East 270 311 9,000  Level San Juan Center
Fri 05:08:48 PM 18.3833 -64.1167 90° East 270 311 9,000 50 Level San Juan Center
Fri 05:09:49 PM 18.3833 -64.0333 90° East 270 311 9,100 50 Climbing San Juan Center
Fri 05:10:49 PM 18.3833 -63.9500 90° East 270 311 9,100  Level San Juan Center
Fri 05:11:49 PM 18.3667 -63.8833 105° East 270 311 9,100  Level San Juan Center
Fri 05:12:50 PM 18.3500 -63.8000 89° East 270 311 9,100  Level San Juan Center
Fri 05:13:50 PM 18.3333 -63.7333 105° East 260 299 9,100  Level San Juan Center
Fri 05:14:50 PM 18.3167 -63.6500 102° East 260 299 9,100  Level San Juan Center
Fri 05:15:51 PM 18.3000 -63.5833 105° East 270 311 9,100 -397 Level San Juan Center
Fri 05:16:51 PM 18.2833 -63.5000 102° East 280 322 8,300 -1,100 Descending San Juan Center
Fri 05:17:51 PM 18.2667 -63.4333 105° East 240 276 6,900 -1,438 Descending San Juan Center
Fri 05:18:52 PM 18.2500 -63.3667 105° East 260 299 5,400 -1,475 Descending San Juan Center
Fri 05:20:00 PM 18.2333 -63.2511 125° Southeast  Level Estimated
Fri 05:27:00 PM 18.2000 -63.0500 North  Level FlightAware Approximate
Fri 05:28:00 PM 18.2048 -63.0551 North  Level Estimated
Fri 05:29:00 PM 18.2000 -63.0500 North  Level FlightAware Approximate
Fri 05:30:00 PM 18.2048 -63.0551 North  Level Estimated
Fri 05:31:00 PM 18.2000 -63.0500 North  Level FlightAware Approximate
Fri 05:32:00 PM 18.2048 -63.0551 North  Level Estimated

Login

Don't have an account? Register now (free) for customized features, flight alerts, and more!